Time,TemperatureF,DewpointF,PressureIn,WindDirection,WindDirectionDegrees,WindSpeedMPH,WindSpeedGustMPH,Humidity,HourlyPrecipIn,Conditions,Clouds,dailyrainin,SolarRadiationWatts/m^2,SoftwareType,DateUTC
2013-03-18 00:00:00,20.3,14.0,29.99,East,93,2.0,3.0,76,0.00,,BKN100,0.00,0.00,VWS V14.01,2013-03-18 05:00:00,
2013-03-18 00:05:00,20.4,14.1,29.99,East,90,5.0,7.0,76,0.00,,BKN100,0.00,0.00,VWS V14.01,2013-03-18 05:05:00,
2013-03-18 00:10:00,20.4,14.1,29.99,East,80,3.0,7.0,76,0.00,,BKN100,0.00,0.00,VWS V14.01,2013-03-18 05:10:00,
2013-03-18 00:15:00,20.3,14.0,29.99,SE,130,6.0,7.0,76,0.00,,BKN100,0.00,0.00,VWS V14.01,2013-03-18 05:15:00,
2013-03-18 00:20:00,20.3,14.0,29.99,SE,126,4.0,8.0,76,0.00,,BKN100,0.00,0.00,VWS V14.01,2013-03-18 05:20:00,
2013-03-18 00:25:00,20.4,14.4,29.99,SE,132,5.0,8.0,77,0.00,,BKN100,0.00,0.00,VWS V14.01,2013-03-18 05:25:00,
2013-03-18 00:30:00,20.3,14.3,29.99,ESE,120,2.0,5.0,77,0.00,,BKN100,0.00,0.00,VWS V14.01,2013-03-18 05:30:00,
2013-03-18 00:35:00,20.3,14.3,29.99,ESE,123,2.0,8.0,77,0.00,,BKN100,0.00,0.00,VWS V14.01,2013-03-18 05:35:00,
2013-03-18 00:40:00,20.2,14.2,29.99,ESE,116,3.0,8.0,77,0.00,,OVC100,0.00,0.00,VWS V14.01,2013-03-18 05:40:00,
2013-03-18 00:45:00,20.2,14.2,29.98,ESE,117,0.0,8.0,77,0.00,,OVC100,0.00,0.00,VWS V14.01,2013-03-18 05:45:00,
2013-03-18 00:51:00,20.2,14.4,29.98,SE,139,5.0,8.0,78,0.00,,OVC100,0.00,0.00,VWS V14.01,2013-03-18 05:51:00,
2013-03-18 00:56:00,20.3,14.6,29.98,ESE,118,3.0,8.0,78,0.00,,OVC100,0.00,0.00,VWS V14.01,2013-03-18 05:56:00,
2013-03-18 01:01:00,20.3,14.6,29.98,ESE,107,1.0,5.0,78,0.00,,OVC027,0.00,0.00,VWS V14.01,2013-03-18 06:01:00,
2013-03-18 01:06:00,20.4,14.6,29.98,ESE,123,2.0,7.0,78,0.00,,OVC027,0.00,0.00,VWS V14.01,2013-03-18 06:06:00,
2013-03-18 01:10:00,20.5,14.7,29.98,ESE,112,0.0,7.0,78,0.00,,OVC027,0.00,0.00,VWS V14.01,2013-03-18 06:10:00,
2013-03-18 01:15:00,20.5,14.7,29.98,East,97,0.0,7.0,78,0.00,,OVC027,0.00,0.00,VWS V14.01,2013-03-18 06:15:00,
2013-03-18 01:21:00,20.6,14.8,29.98,ESE,119,2.0,7.0,78,0.00,,OVC027,0.00,0.00,VWS V14.01,2013-03-18 06:21:00,
2013-03-18 01:26:00,20.6,14.8,29.97,SE,133,2.0,7.0,78,0.00,,OVC027,0.00,0.00,VWS V14.01,2013-03-18 06:26:00,
2013-03-18 01:31:00,20.7,14.9,29.97,East,96,2.0,3.0,78,0.00,,OVC027,0.00,0.00,VWS V14.01,2013-03-18 06:31:00,
2013-03-18 01:36:00,20.7,14.9,29.96,East,101,3.0,4.0,78,0.00,,OVC027,0.00,0.00,VWS V14.01,2013-03-18 06:36:00,
2013-03-18 01:41:00,20.7,14.9,29.97,SE,139,4.0,5.0,78,0.00,,OVC027,0.00,0.00,VWS V14.01,2013-03-18 06:41:00,
2013-03-18 01:46:00,20.7,14.9,29.96,SE,124,2.0,7.0,78,0.00,,OVC027,0.00,0.00,VWS V14.01,2013-03-18 06:46:00,
2013-03-18 01:51:00,20.7,14.9,29.96,SE,129,2.0,7.0,78,0.00,,OVC027,0.00,0.00,VWS V14.01,2013-03-18 06:51:00,
2013-03-18 01:57:00,20.7,15.2,29.96,East,96,1.0,7.0,79,0.00,,OVC027,0.00,0.00,VWS V14.01,2013-03-18 06:57:00,
2013-03-18 02:02:00,20.7,15.2,29.96,ESE,123,4.0,5.0,79,0.00,,OVC025,0.00,0.00,VWS V14.01,2013-03-18 07:02:00,
2013-03-18 02:07:00,20.8,15.3,29.97,SE,125,2.0,5.0,79,0.00,,OVC025,0.00,0.00,VWS V14.01,2013-03-18 07:07:00,
2013-03-18 02:12:00,20.9,15.4,29.96,ESE,111,2.0,5.0,79,0.00,,OVC025,0.00,0.00,VWS V14.01,2013-03-18 07:12:00,
2013-03-18 02:17:00,20.9,15.4,29.95,ESE,123,0.0,5.0,79,0.00,,OVC025,0.00,0.00,VWS V14.01,2013-03-18 07:17:00,
2013-03-18 02:22:00,20.9,15.4,29.95,SE,132,2.0,5.0,79,0.00,,OVC025,0.00,0.00,VWS V14.01,2013-03-18 07:22:00,
2013-03-18 02:27:00,20.9,15.4,29.94,ESE,107,1.0,5.0,79,0.00,,OVC025,0.00,0.00,VWS V14.01,2013-03-18 07:27:00,
2013-03-18 02:32:00,21.0,15.8,29.94,ESE,117,4.0,4.0,80,0.00,,OVC025,0.00,0.00,VWS V14.01,2013-03-18 07:32:00,
2013-03-18 02:37:00,21.0,15.8,29.93,ESE,111,3.0,5.0,80,0.00,,OVC025,0.00,0.00,VWS V14.01,2013-03-18 07:37:00,
2013-03-18 02:42:00,21.0,15.8,29.93,East,99,2.0,7.0,80,0.00,,OVC025,0.00,0.00,VWS V14.01,2013-03-18 07:42:00,
2013-03-18 02:47:00,21.1,15.9,29.92,ESE,115,1.0,7.0,80,0.00,,OVC025,0.00,0.00,VWS V14.01,2013-03-18 07:47:00,
2013-03-18 02:52:00,21.2,16.0,29.91,ESE,115,1.0,7.0,80,0.00,,OVC025,0.00,0.00,VWS V14.01,2013-03-18 07:52:00,
2013-03-18 02:57:00,21.2,16.0,29.91,ESE,107,4.0,7.0,80,0.00,,OVC025,0.00,0.00,VWS V14.01,2013-03-18 07:57:00,
2013-03-18 03:02:00,21.2,16.0,29.91,SE,133,4.0,7.0,80,0.00,,OVC023,0.00,0.00,VWS V14.01,2013-03-18 08:02:00,
2013-03-18 03:07:00,21.1,15.9,29.90,ESE,104,2.0,7.0,80,0.00,,OVC023,0.00,0.00,VWS V14.01,2013-03-18 08:07:00,
2013-03-18 03:12:00,20.9,15.7,29.89,East,92,2.0,7.0,80,0.00,,OVC023,0.00,0.00,VWS V14.01,2013-03-18 08:12:00,
2013-03-18 03:17:00,20.7,15.5,29.89,East,95,1.0,7.0,80,0.00,,OVC023,0.00,0.00,VWS V14.01,2013-03-18 08:17:00,
2013-03-18 03:22:00,20.6,15.4,29.90,ESE,115,4.0,7.0,80,0.00,,OVC100,0.00,0.00,VWS V14.01,2013-03-18 08:22:00,
2013-03-18 03:27:00,20.4,15.2,29.89,SE,139,0.0,7.0,80,0.00,,OVC100,0.00,0.00,VWS V14.01,2013-03-18 08:27:00,
2013-03-18 03:32:00,20.3,15.1,29.89,ENE,72,2.0,3.0,80,0.00,,OVC100,0.00,0.00,VWS V14.01,2013-03-18 08:32:00,
2013-03-18 03:37:00,20.1,15.2,29.88,ESE,110,3.0,4.0,81,0.00,,OVC100,0.00,0.00,VWS V14.01,2013-03-18 08:37:00,
2013-03-18 03:42:00,20.0,15.1,29.88,ESE,113,2.0,7.0,81,0.00,,OVC100,0.00,0.00,VWS V14.01,2013-03-18 08:42:00,
2013-03-18 03:47:00,19.9,15.0,29.88,SE,130,4.0,7.0,81,0.00,,OVC100,0.00,0.00,VWS V14.01,2013-03-18 08:47:00,
2013-03-18 03:52:00,19.8,14.9,29.87,SE,131,5.0,7.0,81,0.00,,OVC100,0.00,0.00,VWS V14.01,2013-03-18 08:52:00,
2013-03-18 03:57:00,19.8,15.2,29.87,SE,124,3.0,7.0,82,0.00,,OVC100,0.00,0.00,VWS V14.01,2013-03-18 08:57:00,
2013-03-18 04:02:00,19.7,15.1,29.86,ESE,110,5.0,6.0,82,0.00,,OVC100,0.00,0.00,VWS V14.01,2013-03-18 09:02:00,
2013-03-18 04:07:00,19.7,15.1,29.85,SE,141,2.0,7.0,82,0.00,,OVC100,0.00,0.00,VWS V14.01,2013-03-18 09:07:00,
2013-03-18 04:12:00,19.6,15.0,29.85,SE,132,2.0,7.0,82,0.00,,OVC100,0.00,0.00,VWS V14.01,2013-03-18 09:12:00,
2013-03-18 04:17:00,19.7,15.4,29.84,ESE,123,3.0,9.0,83,0.00,,OVC100,0.00,0.00,VWS V14.01,2013-03-18 09:17:00,
2013-03-18 04:22:00,19.7,15.4,29.84,ENE,72,0.0,9.0,83,0.00,,FEW100,0.00,0.00,VWS V14.01,2013-03-18 09:22:00,
2013-03-18 04:27:00,19.7,15.4,29.84,ESE,110,4.0,9.0,83,0.00,,FEW100,0.00,0.00,VWS V14.01,2013-03-18 09:27:00,
2013-03-18 04:32:00,19.8,15.5,29.83,ESE,111,3.0,8.0,83,0.00,,FEW100,0.00,0.00,VWS V14.01,2013-03-18 09:32:00,
2013-03-18 04:37:00,19.9,15.6,29.83,SE,140,6.0,9.0,83,0.00,,FEW100,0.00,0.00,VWS V14.01,2013-03-18 09:37:00,
2013-03-18 04:42:00,19.9,15.6,29.83,ESE,123,5.0,9.0,83,0.00,,FEW100,0.00,0.00,VWS V14.01,2013-03-18 09:42:00,
2013-03-18 04:47:00,19.8,15.5,29.83,ESE,122,3.0,9.0,83,0.00,,FEW100,0.00,0.00,VWS V14.01,2013-03-18 09:47:00,
2013-03-18 04:52:00,19.7,15.4,29.82,SE,130,1.0,9.0,83,0.00,,FEW100,0.00,0.00,VWS V14.01,2013-03-18 09:52:00,
2013-03-18 04:57:00,19.8,15.5,29.81,ESE,105,2.0,9.0,83,0.00,,FEW100,0.00,0.00,VWS V14.01,2013-03-18 09:57:00,
2013-03-18 05:02:00,19.7,15.4,29.81,East,94,1.0,3.0,83,0.00,,BKN036,0.00,0.00,VWS V14.01,2013-03-18 10:02:00,
2013-03-18 05:08:00,19.7,15.7,29.81,SE,130,5.0,8.0,84,0.00,,BKN036,0.00,0.00,VWS V14.01,2013-03-18 10:08:00,
2013-03-18 05:13:00,19.7,15.7,29.81,ESE,111,2.0,8.0,84,0.00,,BKN036,0.00,0.00,VWS V14.01,2013-03-18 10:13:00,
2013-03-18 05:18:00,19.8,15.8,29.81,East,94,3.0,8.0,84,0.00,,BKN036,0.00,0.00,VWS V14.01,2013-03-18 10:18:00,
2013-03-18 05:23:00,19.8,15.8,29.81,SE,127,5.0,8.0,84,0.00,,BKN036,0.00,0.00,VWS V14.01,2013-03-18 10:23:00,
2013-03-18 05:28:00,19.8,15.8,29.80,ESE,115,4.0,8.0,84,0.00,,BKN036,0.00,0.00,VWS V14.01,2013-03-18 10:28:00,
2013-03-18 05:33:00,19.9,15.9,29.80,ESE,114,0.0,5.0,84,0.00,,BKN036,0.00,0.00,VWS V14.01,2013-03-18 10:33:00,
2013-03-18 05:38:00,20.1,16.0,29.80,SE,128,2.0,5.0,84,0.00,,BKN036,0.00,0.00,VWS V14.01,2013-03-18 10:38:00,
2013-03-18 05:43:00,20.2,16.4,29.80,ESE,117,5.0,6.0,85,0.00,,BKN036,0.00,0.00,VWS V14.01,2013-03-18 10:43:00,
2013-03-18 05:48:00,20.3,16.5,29.79,ESE,112,3.0,7.0,85,0.00,,BKN036,0.00,0.00,VWS V14.01,2013-03-18 10:48:00,
2013-03-18 05:53:00,20.5,16.7,29.80,ESE,103,5.0,7.0,85,0.00,,BKN036,0.00,0.00,VWS V14.01,2013-03-18 10:53:00,
2013-03-18 05:58:00,20.7,16.9,29.80,ESE,122,4.0,7.0,85,0.00,,BKN036,0.00,0.00,VWS V14.01,2013-03-18 10:58:00,
2013-03-18 06:03:00,20.9,17.1,29.79,East,101,2.0,6.0,85,0.00,,OVC036,0.00,0.00,VWS V14.01,2013-03-18 11:03:00,
2013-03-18 06:08:00,21.1,17.3,29.78,ENE,76,2.0,8.0,85,0.00,,OVC036,0.00,0.00,VWS V14.01,2013-03-18 11:08:00,
2013-03-18 06:13:00,21.3,17.5,29.78,East,98,2.0,8.0,85,0.00,,OVC036,0.00,0.00,VWS V14.01,2013-03-18 11:13:00,
2013-03-18 06:18:00,21.6,17.8,29.78,East,101,5.0,9.0,85,0.00,,OVC036,0.00,0.00,VWS V14.01,2013-03-18 11:18:00,
2013-03-18 06:23:00,21.8,18.0,29.77,ESE,115,3.0,9.0,85,0.00,,OVC036,0.00,0.00,VWS V14.01,2013-03-18 11:23:00,
2013-03-18 06:28:00,21.9,18.1,29.78,SE,133,4.0,10.0,85,0.00,,OVC036,0.00,0.00,VWS V14.01,2013-03-18 11:28:00,
2013-03-18 06:33:00,22.1,18.3,29.78,SSE,155,0.0,8.0,85,0.00,,OVC036,0.00,0.00,VWS V14.01,2013-03-18 11:33:00,
2013-03-18 06:38:00,22.3,18.8,29.77,East,90,3.0,8.0,86,0.00,,OVC036,0.00,0.00,VWS V14.01,2013-03-18 11:38:00,
2013-03-18 06:43:00,22.4,18.9,29.77,SE,137,2.0,8.0,86,0.00,,OVC036,0.00,0.00,VWS V14.01,2013-03-18 11:43:00,
2013-03-18 06:48:00,22.5,19.0,29.77,ESE,121,1.0,8.0,86,0.00,,OVC036,0.00,0.00,VWS V14.01,2013-03-18 11:48:00,
2013-03-18 06:53:00,22.6,19.0,29.77,SSE,153,2.0,8.0,86,0.00,,OVC036,0.00,0.00,VWS V14.01,2013-03-18 11:53:00,
2013-03-18 06:58:00,22.7,19.1,29.77,SE,125,5.0,8.0,86,0.00,,OVC036,0.00,0.00,VWS V14.01,2013-03-18 11:58:00,
2013-03-18 07:03:00,22.8,19.2,29.77,ESE,121,3.0,7.0,86,0.00,,OVC032,0.00,0.00,VWS V14.01,2013-03-18 12:03:00,
2013-03-18 07:08:00,22.9,19.4,29.77,ESE,121,4.0,7.0,86,0.00,,OVC032,0.00,0.00,VWS V14.01,2013-03-18 12:08:00,
2013-03-18 07:13:00,22.9,19.4,29.76,ESE,117,4.0,7.0,86,0.00,,OVC032,0.00,0.00,VWS V14.01,2013-03-18 12:13:00,
2013-03-18 07:18:00,23.0,19.7,29.76,ESE,123,8.0,8.0,87,0.00,,OVC032,0.00,0.00,VWS V14.01,2013-03-18 12:18:00,
2013-03-18 07:23:00,23.1,19.8,29.75,ESE,115,3.0,8.0,87,0.00,,OVC032,0.00,0.00,VWS V14.01,2013-03-18 12:23:00,
2013-03-18 07:28:00,23.1,19.8,29.75,ESE,117,3.0,8.0,87,0.00,,OVC032,0.00,0.00,VWS V14.01,2013-03-18 12:28:00,
2013-03-18 07:33:00,23.1,20.1,29.76,SSE,167,3.0,8.0,88,0.00,,OVC032,0.00,0.00,VWS V14.01,2013-03-18 12:33:00,
2013-03-18 07:38:00,23.1,20.1,29.76,ESE,119,2.0,8.0,88,0.00,,OVC032,0.00,5.00,VWS V14.01,2013-03-18 12:38:00,
2013-03-18 07:43:00,23.2,20.5,29.76,SE,126,3.0,8.0,89,0.00,,,0.00,5.00,VWS V14.01,2013-03-18 12:43:00,
2013-03-18 07:48:00,23.2,20.5,29.76,SE,141,2.0,8.0,89,0.00,,,0.00,5.00,VWS V14.01,2013-03-18 12:48:00,
2013-03-18 07:53:00,23.2,20.5,29.75,ESE,116,3.0,8.0,89,0.00,,,0.00,5.00,VWS V14.01,2013-03-18 12:53:00,
2013-03-18 07:58:00,23.3,20.5,29.75,ESE,115,3.0,8.0,89,0.00,,,0.00,9.00,VWS V14.01,2013-03-18 12:58:00,
2013-03-18 08:03:00,23.4,20.6,29.75,ESE,115,1.0,3.0,89,0.00,,,0.00,12.00,VWS V14.01,2013-03-18 13:03:00,
2013-03-18 08:08:00,23.5,20.7,29.74,SE,134,3.0,7.0,89,0.00,,,0.00,18.00,VWS V14.01,2013-03-18 13:08:00,
2013-03-18 08:13:00,23.6,20.8,29.74,ESE,106,1.0,7.0,89,0.00,,,0.00,25.00,VWS V14.01,2013-03-18 13:13:00,
2013-03-18 08:18:00,23.8,21.0,29.74,ESE,116,2.0,7.0,89,0.00,,,0.00,33.00,VWS V14.01,2013-03-18 13:18:00,
2013-03-18 08:23:00,23.9,21.4,29.74,ESE,119,2.0,7.0,90,0.00,,,0.00,35.00,VWS V14.01,2013-03-18 13:23:00,
2013-03-18 08:28:00,24.0,21.5,29.74,SE,134,3.0,7.0,90,0.00,,,0.00,39.00,VWS V14.01,2013-03-18 13:28:00,
2013-03-18 08:33:00,24.2,21.7,29.73,SE,128,2.0,5.0,90,0.00,,,0.00,40.00,VWS V14.01,2013-03-18 13:33:00,
2013-03-18 08:38:00,24.3,21.8,29.73,ESE,116,2.0,5.0,90,0.00,,,0.00,54.00,VWS V14.01,2013-03-18 13:38:00,
2013-03-18 08:43:00,24.4,21.9,29.73,ESE,111,0.0,5.0,90,0.00,,,0.00,63.00,VWS V14.01,2013-03-18 13:43:00,
2013-03-18 08:48:00,24.5,22.0,29.72,ESE,113,2.0,5.0,90,0.00,,,0.00,72.00,VWS V14.01,2013-03-18 13:48:00,
2013-03-18 08:53:00,24.7,22.2,29.72,SE,126,3.0,5.0,90,0.00,,,0.00,88.00,VWS V14.01,2013-03-18 13:53:00,
2013-03-18 08:58:00,24.8,22.3,29.72,ESE,113,1.0,5.0,90,0.00,,,0.00,158.00,VWS V14.01,2013-03-18 13:58:00,
2013-03-18 09:03:00,25.0,22.5,29.73,SE,124,3.0,5.0,90,0.00,,,0.00,127.00,VWS V14.01,2013-03-18 14:03:00,
2013-03-18 09:08:00,25.1,22.6,29.72,East,100,1.0,5.0,90,0.00,,,0.00,116.00,VWS V14.01,2013-03-18 14:08:00,
2013-03-18 09:13:00,25.2,22.4,29.72,SE,135,4.0,6.0,89,0.00,,,0.00,114.00,VWS V14.01,2013-03-18 14:13:00,
2013-03-18 09:18:00,25.2,22.4,29.71,ESE,122,2.0,7.0,89,0.00,,,0.00,118.00,VWS V14.01,2013-03-18 14:18:00,
2013-03-18 09:23:00,25.2,22.4,29.71,SE,128,4.0,7.0,89,0.00,,,0.00,107.00,VWS V14.01,2013-03-18 14:23:00,
2013-03-18 09:29:00,25.2,22.4,29.71,SE,144,3.0,7.0,89,0.00,,,0.00,121.00,VWS V14.01,2013-03-18 14:29:00,
2013-03-18 09:34:00,25.3,22.5,29.71,ESE,115,3.0,6.0,89,0.00,,,0.00,132.00,VWS V14.01,2013-03-18 14:34:00,
2013-03-18 09:39:00,25.4,22.6,29.71,SE,130,4.0,8.0,89,0.00,,,0.00,127.00,VWS V14.01,2013-03-18 14:39:00,
2013-03-18 09:44:00,25.4,22.6,29.70,SE,133,2.0,9.0,89,0.00,,,0.00,121.00,VWS V14.01,2013-03-18 14:44:00,
2013-03-18 09:49:00,25.5,22.7,29.70,ESE,105,0.0,9.0,89,0.00,,,0.00,141.00,VWS V14.01,2013-03-18 14:49:00,
2013-03-18 09:54:00,25.7,22.9,29.70,ESE,113,2.0,9.0,89,0.00,,,0.00,153.00,VWS V14.01,2013-03-18 14:54:00,
2013-03-18 09:59:00,25.7,22.9,29.69,East,101,2.0,9.0,89,0.00,,,0.00,176.00,VWS V14.01,2013-03-18 14:59:00,
2013-03-18 10:04:00,25.7,22.9,29.69,ESE,120,4.0,7.0,89,0.00,,,0.00,134.00,VWS V14.01,2013-03-18 15:04:00,
2013-03-18 10:09:00,25.8,23.0,29.69,SE,136,2.0,8.0,89,0.00,,,0.00,127.00,VWS V14.01,2013-03-18 15:09:00,
2013-03-18 10:14:00,25.7,22.9,29.69,SE,145,1.0,8.0,89,0.00,,,0.00,144.00,VWS V14.01,2013-03-18 15:14:00,
2013-03-18 10:19:00,25.8,23.0,29.69,ESE,112,3.0,8.0,89,0.00,,,0.00,134.00,VWS V14.01,2013-03-18 15:19:00,
2013-03-18 10:24:00,25.9,23.1,29.68,SE,125,2.0,8.0,89,0.00,,,0.00,156.00,VWS V14.01,2013-03-18 15:24:00,
2013-03-18 10:29:00,25.9,23.1,29.68,SE,141,4.0,8.0,89,0.00,,,0.00,141.00,VWS V14.01,2013-03-18 15:29:00,
2013-03-18 10:34:00,26.0,23.2,29.68,ESE,121,4.0,9.0,89,0.00,,,0.00,195.00,VWS V14.01,2013-03-18 15:34:00,
2013-03-18 10:39:00,26.2,23.4,29.68,SE,141,3.0,9.0,89,0.00,,,0.00,211.00,VWS V14.01,2013-03-18 15:39:00,
2013-03-18 10:44:00,26.3,23.5,29.68,ESE,123,1.0,9.0,89,0.00,,,0.00,195.00,VWS V14.01,2013-03-18 15:44:00,
2013-03-18 10:49:00,26.5,23.7,29.67,SE,126,2.0,9.0,89,0.00,,,0.00,225.00,VWS V14.01,2013-03-18 15:49:00,
2013-03-18 10:54:00,26.7,23.9,29.67,SSE,150,4.0,9.0,89,0.00,,,0.00,218.00,VWS V14.01,2013-03-18 15:54:00,
2013-03-18 10:59:00,26.8,24.0,29.67,SE,127,8.0,9.0,89,0.00,,,0.00,239.00,VWS V14.01,2013-03-18 15:59:00,
2013-03-18 11:04:00,26.8,24.0,29.67,ESE,121,2.0,9.0,89,0.00,,,0.00,241.00,VWS V14.01,2013-03-18 16:04:00,
2013-03-18 11:09:00,26.9,23.8,29.66,SE,132,2.0,9.0,88,0.00,,,0.00,229.00,VWS V14.01,2013-03-18 16:09:00,
2013-03-18 11:14:00,26.9,23.8,29.66,SE,134,2.0,9.0,88,0.00,,,0.00,216.00,VWS V14.01,2013-03-18 16:14:00,
2013-03-18 11:19:00,27.1,24.3,29.66,SE,132,2.0,9.0,89,0.00,,,0.00,229.00,VWS V14.01,2013-03-18 16:19:00,
2013-03-18 11:24:00,27.2,24.1,29.65,SE,143,2.0,9.0,88,0.00,,,0.00,223.00,VWS V14.01,2013-03-18 16:24:00,
2013-03-18 11:29:00,27.4,24.6,29.65,ESE,115,2.0,9.0,89,0.00,,,0.00,218.00,VWS V14.01,2013-03-18 16:29:00,
2013-03-18 11:34:00,27.4,24.6,29.65,SE,136,5.0,8.0,89,0.00,,,0.00,209.00,VWS V14.01,2013-03-18 16:34:00,
2013-03-18 11:39:00,27.4,24.3,29.64,SSE,148,3.0,9.0,88,0.00,,,0.00,188.00,VWS V14.01,2013-03-18 16:39:00,
2013-03-18 11:44:00,27.5,24.7,29.64,SE,127,1.0,9.0,89,0.00,,,0.00,179.00,VWS V14.01,2013-03-18 16:44:00,
2013-03-18 11:49:00,27.6,24.8,29.64,SE,128,4.0,9.0,89,0.00,,,0.00,179.00,VWS V14.01,2013-03-18 16:49:00,
2013-03-18 11:54:00,27.6,24.8,29.64,SE,144,3.0,9.0,89,0.00,,,0.00,151.00,VWS V14.01,2013-03-18 16:54:00,
2013-03-18 11:59:00,27.7,24.9,29.63,SSE,153,2.0,9.0,89,0.00,,,0.00,153.00,VWS V14.01,2013-03-18 16:59:00,
2013-03-18 12:04:00,27.7,24.9,29.63,ESE,123,3.0,6.0,89,0.00,,,0.00,156.00,VWS V14.01,2013-03-18 17:04:00,
2013-03-18 12:09:00,27.8,25.0,29.63,SE,137,3.0,6.0,89,0.00,,,0.00,155.00,VWS V14.01,2013-03-18 17:09:00,
2013-03-18 12:14:00,27.8,25.0,29.62,SE,143,4.0,6.0,89,0.00,,,0.00,130.00,VWS V14.01,2013-03-18 17:14:00,
2013-03-18 12:19:00,27.8,25.0,29.62,SE,124,4.0,7.0,89,0.00,,,0.00,120.00,VWS V14.01,2013-03-18 17:19:00,
2013-03-18 12:24:00,27.7,25.2,29.62,SE,141,3.0,7.0,90,0.00,,,0.00,141.00,VWS V14.01,2013-03-18 17:24:00,
2013-03-18 12:29:00,27.8,25.2,29.62,SE,140,4.0,7.0,90,0.00,,,0.00,132.00,VWS V14.01,2013-03-18 17:29:00,
2013-03-18 12:34:00,27.8,25.2,29.61,SE,134,1.0,5.0,90,0.00,,,0.00,114.00,VWS V14.01,2013-03-18 17:34:00,
2013-03-18 12:39:00,27.8,25.2,29.61,SSE,152,4.0,5.0,90,0.00,,,0.00,111.00,VWS V14.01,2013-03-18 17:39:00,
2013-03-18 12:44:00,27.8,25.2,29.61,SE,132,1.0,8.0,90,0.00,,,0.00,116.00,VWS V14.01,2013-03-18 17:44:00,
2013-03-18 12:49:00,27.9,25.4,29.61,SE,144,3.0,8.0,90,0.00,,,0.00,137.00,VWS V14.01,2013-03-18 17:49:00,
2013-03-18 12:54:00,28.0,25.5,29.60,SSE,149,2.0,8.0,90,0.00,,,0.00,155.00,VWS V14.01,2013-03-18 17:54:00,
2013-03-18 12:59:00,28.1,25.5,29.60,SSE,163,4.0,8.0,90,0.00,,,0.00,185.00,VWS V14.01,2013-03-18 17:59:00,
2013-03-18 13:04:00,28.2,25.6,29.60,South,180,3.0,5.0,90,0.00,,,0.00,186.00,VWS V14.01,2013-03-18 18:04:00,
2013-03-18 13:09:00,28.3,25.8,29.60,ESE,113,4.0,8.0,90,0.00,,,0.00,195.00,VWS V14.01,2013-03-18 18:09:00,
2013-03-18 13:14:00,28.3,25.8,29.60,SSE,164,2.0,8.0,90,0.00,,,0.00,209.00,VWS V14.01,2013-03-18 18:14:00,
2013-03-18 13:19:00,28.4,25.9,29.59,SE,134,4.0,8.0,90,0.00,,,0.00,216.00,VWS V14.01,2013-03-18 18:19:00,
2013-03-18 13:24:00,28.6,26.0,29.59,SE,139,3.0,8.0,90,0.00,,,0.00,204.00,VWS V14.01,2013-03-18 18:24:00,
2013-03-18 13:29:00,28.7,26.1,29.59,SE,145,1.0,8.0,90,0.00,,,0.00,193.00,VWS V14.01,2013-03-18 18:29:00,
2013-03-18 13:34:00,28.9,26.3,29.59,SSW,193,6.0,6.0,90,0.00,,,0.00,199.00,VWS V14.01,2013-03-18 18:34:00,
2013-03-18 13:39:00,29.0,26.4,29.59,SSE,160,3.0,6.0,90,0.00,,,0.00,229.00,VWS V14.01,2013-03-18 18:39:00,
2013-03-18 13:44:00,29.0,26.4,29.59,South,181,2.0,6.0,90,0.00,,,0.00,216.00,VWS V14.01,2013-03-18 18:44:00,
2013-03-18 13:49:00,28.9,26.1,29.58,South,169,2.0,9.0,89,0.00,,,0.00,243.00,VWS V14.01,2013-03-18 18:49:00,
2013-03-18 13:54:00,28.9,26.1,29.58,SSE,163,2.0,9.0,89,0.00,,,0.00,204.00,VWS V14.01,2013-03-18 18:54:00,
2013-03-18 13:59:00,28.9,26.1,29.58,SE,143,4.0,9.0,89,0.00,,,0.00,234.00,VWS V14.01,2013-03-18 18:59:00,
2013-03-18 14:04:00,29.1,26.3,29.58,South,186,8.0,10.0,89,0.00,,,0.00,274.00,VWS V14.01,2013-03-18 19:04:00,
2013-03-18 14:09:00,29.2,26.4,29.58,SE,146,3.0,10.0,89,0.00,,,0.00,250.00,VWS V14.01,2013-03-18 19:09:00,
2013-03-18 14:14:00,29.1,26.3,29.58,SE,141,4.0,10.0,89,0.00,,,0.00,257.00,VWS V14.01,2013-03-18 19:14:00,
2013-03-18 14:19:00,29.1,26.3,29.57,South,171,5.0,10.0,89,0.00,,,0.00,230.00,VWS V14.01,2013-03-18 19:19:00,
2013-03-18 14:24:00,29.0,26.2,29.57,South,181,8.0,10.0,89,0.00,,,0.00,253.00,VWS V14.01,2013-03-18 19:24:00,
2013-03-18 14:29:00,28.8,25.7,29.57,South,180,6.0,13.0,88,0.00,,,0.00,132.00,VWS V14.01,2013-03-18 19:29:00,
2013-03-18 14:34:00,28.7,25.9,29.57,SSW,205,5.0,11.0,89,0.00,,,0.00,139.00,VWS V14.01,2013-03-18 19:34:00,
2013-03-18 14:40:00,28.7,25.9,29.57,SSE,167,2.0,11.0,89,0.00,,,0.00,151.00,VWS V14.01,2013-03-18 19:40:00,
2013-03-18 14:45:00,28.7,25.9,29.56,South,176,5.0,11.0,89,0.00,,,0.00,141.00,VWS V14.01,2013-03-18 19:45:00,
2013-03-18 14:50:00,28.8,26.0,29.56,SSW,199,3.0,11.0,89,0.00,,,0.00,142.00,VWS V14.01,2013-03-18 19:50:00,
2013-03-18 14:55:00,28.8,26.0,29.56,SW,217,3.0,11.0,89,0.00,,,0.00,121.00,VWS V14.01,2013-03-18 19:55:00,
2013-03-18 15:00:00,28.9,26.1,29.56,SSW,204,5.0,5.0,89,0.00,,,0.00,109.00,VWS V14.01,2013-03-18 20:00:00,
2013-03-18 15:05:00,28.7,25.9,29.56,South,189,11.0,11.0,89,0.00,,OVC012,0.00,83.00,VWS V14.01,2013-03-18 20:05:00,
2013-03-18 15:10:00,28.6,25.8,29.56,WSW,246,7.0,13.0,89,0.00,,OVC012,0.00,63.00,VWS V14.01,2013-03-18 20:10:00,
2013-03-18 15:15:00,28.5,25.4,29.56,SSW,209,6.0,13.0,88,0.00,,OVC012,0.00,58.00,VWS V14.01,2013-03-18 20:15:00,
2013-03-18 15:20:00,28.4,25.3,29.56,SW,230,7.0,13.0,88,0.00,,OVC012,0.00,47.00,VWS V14.01,2013-03-18 20:20:00,
2013-03-18 15:25:00,27.5,24.1,29.56,West,265,10.0,19.0,87,0.00,,OVC012,0.00,56.00,VWS V14.01,2013-03-18 20:25:00,
2013-03-18 15:30:00,26.7,23.4,29.56,West,279,9.0,12.0,87,0.00,,OVC012,0.00,56.00,VWS V14.01,2013-03-18 20:30:00,
2013-03-18 15:35:00,26.3,23.0,29.57,West,265,7.0,18.0,87,0.00,,OVC012,0.00,60.00,VWS V14.01,2013-03-18 20:35:00,
2013-03-18 15:40:00,25.7,22.4,29.57,WSW,257,7.0,18.0,87,0.00,,OVC012,0.00,79.00,VWS V14.01,2013-03-18 20:40:00,
2013-03-18 15:45:00,25.2,21.6,29.57,West,277,13.0,18.0,86,0.00,,OVC012,0.00,97.00,VWS V14.01,2013-03-18 20:45:00,
2013-03-18 15:50:00,24.8,21.5,29.57,WSW,249,9.0,18.0,87,0.00,,OVC012,0.00,105.00,VWS V14.01,2013-03-18 20:50:00,
2013-03-18 15:55:00,24.5,20.9,29.57,West,266,11.0,18.0,86,0.00,,OVC012,0.00,148.00,VWS V14.01,2013-03-18 20:55:00,
2013-03-18 16:00:00,24.5,20.9,29.58,West,278,9.0,12.0,86,0.00,,OVC012,0.00,190.00,VWS V14.01,2013-03-18 21:00:00,
2013-03-18 16:05:00,24.5,20.9,29.58,WSW,254,12.0,14.0,86,0.00,,,0.00,171.00,VWS V14.01,2013-03-18 21:05:00,
2013-03-18 16:10:00,24.3,20.7,29.58,West,273,10.0,18.0,86,0.00,,,0.00,149.00,VWS V14.01,2013-03-18 21:10:00,
2013-03-18 16:15:00,24.0,20.4,29.58,West,277,10.0,18.0,86,0.00,,,0.00,156.00,VWS V14.01,2013-03-18 21:15:00,
2013-03-18 16:20:00,23.9,20.3,29.59,NW,306,8.0,18.0,86,0.00,,,0.00,162.00,VWS V14.01,2013-03-18 21:20:00,
2013-03-18 16:25:00,23.9,20.1,29.59,WNW,284,7.0,18.0,85,0.00,,,0.00,114.00,VWS V14.01,2013-03-18 21:25:00,
2013-03-18 16:30:00,23.8,19.7,29.59,West,275,7.0,12.0,84,0.00,,,0.00,102.00,VWS V14.01,2013-03-18 21:30:00,
2013-03-18 16:35:00,23.6,19.5,29.59,WSW,249,9.0,15.0,84,0.00,,,0.00,67.00,VWS V14.01,2013-03-18 21:35:00,
2013-03-18 16:40:00,23.3,18.9,29.59,West,271,12.0,16.0,83,0.00,,,0.00,93.00,VWS V14.01,2013-03-18 21:40:00,
2013-03-18 16:45:00,23.3,18.9,29.59,WSW,244,7.0,16.0,83,0.00,,,0.00,118.00,VWS V14.01,2013-03-18 21:45:00,
2013-03-18 16:50:00,23.3,18.6,29.59,WNW,285,7.0,16.0,82,0.00,,,0.00,111.00,VWS V14.01,2013-03-18 21:50:00,
2013-03-18 16:55:00,23.0,18.0,29.59,West,263,7.0,16.0,81,0.00,,,0.00,125.00,VWS V14.01,2013-03-18 21:55:00,
2013-03-18 17:00:00,22.9,18.5,29.60,WNW,300,9.0,9.0,83,0.00,,,0.00,202.00,VWS V14.01,2013-03-18 22:00:00,
2013-03-18 17:05:00,23.0,18.3,29.60,WSW,258,7.0,16.0,82,0.00,,,0.00,169.00,VWS V14.01,2013-03-18 22:05:00,
2013-03-18 17:10:00,22.9,18.5,29.60,WSW,254,11.0,16.0,83,0.00,,,0.00,123.00,VWS V14.01,2013-03-18 22:10:00,
2013-03-18 17:15:00,22.4,18.3,29.60,SW,233,12.0,17.0,84,0.00,,,0.00,98.00,VWS V14.01,2013-03-18 22:15:00,
2013-03-18 17:20:00,21.7,17.6,29.60,WSW,242,11.0,17.0,84,0.00,,,0.00,121.00,VWS V14.01,2013-03-18 22:20:00,
2013-03-18 17:25:00,21.4,17.6,29.61,West,266,13.0,17.0,85,0.00,,,0.00,123.00,VWS V14.01,2013-03-18 22:25:00,
2013-03-18 17:30:00,21.1,17.6,29.61,West,274,8.0,13.0,86,0.00,,,0.00,102.00,VWS V14.01,2013-03-18 22:30:00,
2013-03-18 17:35:00,20.9,17.1,29.60,West,271,8.0,15.0,85,0.00,,,0.00,81.00,VWS V14.01,2013-03-18 22:35:00,
2013-03-18 17:40:00,20.7,16.9,29.61,WSW,254,6.0,17.0,85,0.00,,,0.00,113.00,VWS V14.01,2013-03-18 22:40:00,
2013-03-18 17:45:00,20.6,16.8,29.61,West,278,12.0,17.0,85,0.00,,,0.00,181.00,VWS V14.01,2013-03-18 22:45:00,
2013-03-18 17:50:00,20.6,16.8,29.62,West,259,10.0,17.0,85,0.00,,,0.00,149.00,VWS V14.01,2013-03-18 22:50:00,
2013-03-18 17:55:00,20.3,16.2,29.62,WNW,282,11.0,19.0,84,0.00,,,0.00,111.00,VWS V14.01,2013-03-18 22:55:00,
2013-03-18 18:00:00,20.3,16.0,29.62,West,279,14.0,16.0,83,0.00,,,0.00,90.00,VWS V14.01,2013-03-18 23:00:00,
2013-03-18 18:05:00,20.2,15.3,29.62,WNW,298,11.0,19.0,81,0.00,,,0.00,69.00,VWS V14.01,2013-03-18 23:05:00,
2013-03-18 18:10:00,20.1,15.5,29.62,WNW,284,7.0,19.0,82,0.00,,,0.00,67.00,VWS V14.01,2013-03-18 23:10:00,
2013-03-18 18:15:00,20.0,15.7,29.62,West,269,8.0,19.0,83,0.00,,,0.00,54.00,VWS V14.01,2013-03-18 23:15:00,
2013-03-18 18:21:00,19.9,15.6,29.62,WNW,285,8.0,19.0,83,0.00,,,0.00,53.00,VWS V14.01,2013-03-18 23:21:00,
2013-03-18 18:25:00,19.7,15.7,29.62,SW,236,9.0,19.0,84,0.00,,,0.00,40.00,VWS V14.01,2013-03-18 23:25:00,
2013-03-18 18:31:00,19.4,15.1,29.62,SW,229,6.0,14.0,83,0.00,,,0.00,28.00,VWS V14.01,2013-03-18 23:31:00,
2013-03-18 18:36:00,19.2,14.9,29.63,West,264,10.0,16.0,83,0.00,,,0.00,26.00,VWS V14.01,2013-03-18 23:36:00,
2013-03-18 18:41:00,19.0,15.0,29.63,WSW,238,8.0,16.0,84,0.00,,,0.00,21.00,VWS V14.01,2013-03-18 23:41:00,
2013-03-18 18:46:00,18.9,14.9,29.63,West,261,11.0,16.0,84,0.00,,,0.00,14.00,VWS V14.01,2013-03-18 23:46:00,
2013-03-18 18:51:00,18.8,14.8,29.63,West,267,8.0,16.0,84,0.00,,,0.00,12.00,VWS V14.01,2013-03-18 23:51:00,
2013-03-18 18:56:00,18.8,14.8,29.63,West,260,8.0,16.0,84,0.00,,,0.00,11.00,VWS V14.01,2013-03-18 23:56:00,
2013-03-18 19:01:00,18.7,14.7,29.64,West,279,7.0,11.0,84,0.00,,,0.00,7.00,VWS V14.01,2013-03-19 00:01:00,
2013-03-18 19:06:00,18.6,14.6,29.64,WSW,250,10.0,13.0,84,0.00,,,0.00,0.00,VWS V14.01,2013-03-19 00:06:00,
2013-03-18 19:11:00,18.5,14.5,29.64,WSW,247,12.0,15.0,84,0.00,,,0.00,0.00,VWS V14.01,2013-03-19 00:11:00,
2013-03-18 19:16:00,18.5,14.5,29.64,WNW,297,5.0,15.0,84,0.00,,,0.00,0.00,VWS V14.01,2013-03-19 00:16:00,
2013-03-18 19:21:00,18.4,14.4,29.64,West,281,6.0,15.0,84,0.00,,,0.00,0.00,VWS V14.01,2013-03-19 00:21:00,
2013-03-18 19:26:00,18.3,14.3,29.65,West,269,9.0,15.0,84,0.00,,,0.00,0.00,VWS V14.01,2013-03-19 00:26:00,
2013-03-18 19:31:00,18.2,14.2,29.65,WSW,255,7.0,10.0,84,0.00,,,0.00,0.00,VWS V14.01,2013-03-19 00:31:00,
2013-03-18 19:36:00,18.1,13.8,29.65,West,274,13.0,15.0,83,0.00,,,0.00,0.00,VWS V14.01,2013-03-19 00:36:00,
2013-03-18 19:42:00,17.9,13.4,29.65,West,278,11.0,18.0,82,0.00,,,0.00,0.00,VWS V14.01,2013-03-19 00:42:00,
2013-03-18 19:47:00,17.7,13.1,29.65,WNW,292,14.0,18.0,82,0.00,,,0.00,0.00,VWS V14.01,2013-03-19 00:47:00,
2013-03-18 19:52:00,17.5,13.2,29.65,West,272,11.0,18.0,83,0.00,,,0.00,0.00,VWS V14.01,2013-03-19 00:52:00,
2013-03-18 19:57:00,17.3,13.3,29.65,WNW,283,12.0,18.0,84,0.00,,,0.00,0.00,VWS V14.01,2013-03-19 00:57:00,
2013-03-18 20:02:00,17.3,13.3,29.65,West,272,7.0,10.0,84,0.00,,,0.00,0.00,VWS V14.01,2013-03-19 01:02:00,
2013-03-18 20:07:00,17.3,13.3,29.65,SW,217,6.0,10.0,84,0.00,,,0.00,0.00,VWS V14.01,2013-03-19 01:07:00,
2013-03-18 20:12:00,17.2,13.5,29.65,West,269,4.0,13.0,85,0.00,,,0.00,0.00,VWS V14.01,2013-03-19 01:12:00,
2013-03-18 20:17:00,17.1,13.4,29.65,WSW,244,7.0,13.0,85,0.00,,,0.00,0.00,VWS V14.01,2013-03-19 01:17:00,
2013-03-18 20:22:00,17.0,13.5,29.65,WSW,238,8.0,13.0,86,0.00,,,0.00,0.00,VWS V14.01,2013-03-19 01:22:00,
2013-03-18 20:27:00,16.9,13.4,29.65,West,271,8.0,14.0,86,0.00,,,0.00,0.00,VWS V14.01,2013-03-19 01:27:00,
2013-03-18 20:32:00,16.8,13.4,29.65,WNW,286,7.0,10.0,86,0.00,,,0.00,0.00,VWS V14.01,2013-03-19 01:32:00,
2013-03-18 20:37:00,16.7,13.2,29.65,WSW,257,7.0,12.0,86,0.00,,,0.00,0.00,VWS V14.01,2013-03-19 01:37:00,
2013-03-18 20:42:00,16.7,13.2,29.65,WSW,254,7.0,12.0,86,0.00,,,0.00,0.00,VWS V14.01,2013-03-19 01:42:00,
2013-03-18 20:48:00,16.6,12.9,29.66,West,273,7.0,12.0,85,0.00,,,0.00,0.00,VWS V14.01,2013-03-19 01:48:00,
2013-03-18 20:53:00,16.7,12.7,29.66,WSW,257,14.0,18.0,84,0.00,,,0.00,0.00,VWS V14.01,2013-03-19 01:53:00,
2013-03-18 20:58:00,16.8,12.5,29.66,WSW,239,7.0,18.0,83,0.00,,,0.00,0.00,VWS V14.01,2013-03-19 01:58:00,
2013-03-18 21:03:00,16.8,12.5,29.65,WSW,256,6.0,11.0,83,0.00,,,0.00,0.00,VWS V14.01,2013-03-19 02:03:00,
2013-03-18 21:08:00,16.9,12.6,29.66,WNW,295,10.0,11.0,83,0.00,,,0.00,0.00,VWS V14.01,2013-03-19 02:08:00,
2013-03-18 21:13:00,16.9,12.6,29.66,West,263,8.0,12.0,83,0.00,,,0.00,0.00,VWS V14.01,2013-03-19 02:13:00,
2013-03-18 21:18:00,17.0,12.7,29.66,WNW,286,8.0,14.0,83,0.00,,,0.00,0.00,VWS V14.01,2013-03-19 02:18:00,
2013-03-18 21:23:00,16.9,12.6,29.66,West,261,8.0,14.0,83,0.00,,,0.00,0.00,VWS V14.01,2013-03-19 02:23:00,
2013-03-18 21:28:00,16.8,12.8,29.66,SW,234,9.0,14.0,84,0.00,,,0.00,0.00,VWS V14.01,2013-03-19 02:28:00,
2013-03-18 21:33:00,16.7,12.7,29.66,West,273,6.0,14.0,84,0.00,,,0.00,0.00,VWS V14.01,2013-03-19 02:33:00,
2013-03-18 21:38:00,16.6,12.6,29.66,SW,218,9.0,14.0,84,0.00,,,0.00,0.00,VWS V14.01,2013-03-19 02:38:00,
2013-03-18 21:43:00,16.6,12.6,29.66,WSW,246,4.0,15.0,84,0.00,,,0.00,0.00,VWS V14.01,2013-03-19 02:43:00,
2013-03-18 21:48:00,16.5,12.5,29.66,West,270,7.0,17.0,84,0.00,,,0.00,0.00,VWS V14.01,2013-03-19 02:48:00,
2013-03-18 21:53:00,16.5,12.2,29.66,West,277,11.0,17.0,83,0.00,,,0.00,0.00,VWS V14.01,2013-03-19 02:53:00,
2013-03-18 21:58:00,16.4,12.4,29.66,WSW,242,8.0,17.0,84,0.00,,,0.00,0.00,VWS V14.01,2013-03-19 02:58:00,
2013-03-18 22:03:00,16.4,12.4,29.66,WSW,251,13.0,16.0,84,0.00,,OVC070,0.00,0.00,VWS V14.01,2013-03-19 03:03:00,
2013-03-18 22:08:00,16.4,12.1,29.67,West,269,5.0,16.0,83,0.00,,OVC070,0.00,0.00,VWS V14.01,2013-03-19 03:08:00,
2013-03-18 22:13:00,16.4,12.4,29.67,WSW,249,12.0,17.0,84,0.00,,OVC070,0.00,0.00,VWS V14.01,2013-03-19 03:13:00,
2013-03-18 22:18:00,16.4,12.4,29.67,SW,231,7.0,17.0,84,0.00,,OVC070,0.00,0.00,VWS V14.01,2013-03-19 03:18:00,
2013-03-18 22:23:00,16.4,12.4,29.67,WSW,252,13.0,17.0,84,0.00,,OVC070,0.00,0.00,VWS V14.01,2013-03-19 03:23:00,
2013-03-18 22:28:00,16.3,12.3,29.67,West,271,11.0,17.0,84,0.00,,OVC070,0.00,0.00,VWS V14.01,2013-03-19 03:28:00,
2013-03-18 22:33:00,16.3,12.3,29.67,West,266,11.0,13.0,84,0.00,,OVC070,0.00,0.00,VWS V14.01,2013-03-19 03:33:00,
2013-03-18 22:38:00,16.2,12.2,29.67,WNW,286,13.0,16.0,84,0.00,,OVC070,0.00,0.00,VWS V14.01,2013-03-19 03:38:00,
2013-03-18 22:43:00,16.2,12.2,29.67,WNW,292,14.0,18.0,84,0.00,,OVC070,0.00,0.00,VWS V14.01,2013-03-19 03:43:00,
2013-03-18 22:48:00,16.2,12.2,29.67,WSW,256,5.0,18.0,84,0.00,,OVC070,0.00,0.00,VWS V14.01,2013-03-19 03:48:00,
2013-03-18 22:53:00,16.2,12.2,29.67,WSW,258,11.0,18.0,84,0.00,,OVC070,0.00,0.00,VWS V14.01,2013-03-19 03:53:00,
2013-03-18 22:58:00,16.1,12.1,29.67,West,276,11.0,19.0,84,0.00,,OVC070,0.00,0.00,VWS V14.01,2013-03-19 03:58:00,
2013-03-18 23:00:00,16.1,12.1,29.67,West,262,12.0,12.0,84,0.00,,OVC070,0.00,0.00,VWS V14.01,2013-03-19 04:00:00,
2013-03-18 23:05:00,16.1,12.1,29.67,West,260,13.0,17.0,84,0.00,,,0.00,0.00,VWS V14.01,2013-03-19 04:05:00,
2013-03-18 23:10:00,16.1,12.1,29.67,West,269,11.0,18.0,84,0.00,,,0.00,0.00,VWS V14.01,2013-03-19 04:10:00,
2013-03-18 23:15:00,16.1,12.1,29.67,West,269,6.0,18.0,84,0.00,,,0.00,0.00,VWS V14.01,2013-03-19 04:15:00,
2013-03-18 23:20:00,16.1,12.1,29.67,West,266,11.0,18.0,84,0.00,,,0.00,0.00,VWS V14.01,2013-03-19 04:20:00,
2013-03-18 23:25:00,16.1,12.1,29.67,West,259,10.0,18.0,84,0.00,,,0.00,0.00,VWS V14.01,2013-03-19 04:25:00,
2013-03-18 23:30:00,16.1,12.1,29.67,West,270,16.0,16.0,84,0.00,,,0.00,0.00,VWS V14.01,2013-03-19 04:30:00,
2013-03-18 23:35:00,16.1,12.4,29.67,WNW,283,12.0,17.0,85,0.00,,,0.00,0.00,VWS V14.01,2013-03-19 04:35:00,
2013-03-18 23:40:00,16.1,12.4,29.67,WNW,299,8.0,19.0,85,0.00,,,0.00,0.00,VWS V14.01,2013-03-19 04:40:00,
2013-03-18 23:45:00,16.2,12.2,29.67,West,278,16.0,23.0,84,0.00,,,0.00,0.00,VWS V14.01,2013-03-19 04:45:00,
2013-03-18 23:50:00,16.2,12.2,29.67,WNW,296,13.0,26.0,84,0.00,,,0.00,0.00,VWS V14.01,2013-03-19 04:50:00,
2013-03-18 23:55:00,16.1,12.1,29.67,NW,317,14.0,26.0,84,0.00,,,0.00,0.00,VWS V14.01,2013-03-19 04:55:00,